Terminal Aerodrome Forecast
Issued by NWS Jackson, MS

Home | Current Version | Previous Version | Text Only | Print | Product List | Glossary On
Versions: 1 2 3 4 5 6 7 8 9 10 11 12 13 14 15
021
FTUS44 KJAN 261725
TAFJAN
TAF
KJAN 261725Z 2618/2718 15009G18KT P6SM SKC
     FM270000 15006KT P6SM FEW250
     FM270900 15009KT P6SM VCSH BKN090 BKN250
     FM271300 16009KT 5SM SHRA VCTS BKN015CB OVC090=

USA.gov is the U.S. government's official web portal to all federal, state and local government web resources and services.